Time;durP1;ratioP1;P1;durP2;ratioP2;P2;SDS_P1;SDS_P2;PMS_P1;PMS_P2;Temp;Humidity;BMP_temperature;BMP_pressure;BME280_temperature;BME280_humidity;BME280_pressure;Samples;Min_cycle;Max_cycle;Signal;HPM_P1;HPM_P2
2023/05/06 00:00:56;;;;;;;5.55;3.60;;;;;;;;;;5068075;28;20052;-67
2023/05/06 00:03:23;;;;;;;5.55;3.67;;;;;;;;;;5062433;28;20052;-67
2023/05/06 00:05:51;;;;;;;7.45;4.38;;;;;;;;;;5057474;28;20056;-67
2023/05/06 00:08:18;;;;;;;7.60;3.60;;;;;;;;;;5062968;28;20549;-67
2023/05/06 00:10:45;;;;;;;7.10;3.80;;;;;;;;;;5059667;28;20040;-67
2023/05/06 00:13:14;;;;;;;5.78;3.55;;;;;;;;;;5055977;28;20045;-67
2023/05/06 00:15:42;;;;;;;5.47;3.55;;;;;;;;;;5057125;28;20052;-67
2023/05/06 00:18:09;;;;;;;5.05;3.03;;;;;;;;;;5060366;28;20346;-67
2023/05/06 00:20:36;;;;;;;6.15;2.97;;;;;;;;;;5070129;28;20052;-67
2023/05/06 00:23:03;;;;;;;5.47;3.42;;;;;;;;;;5070288;28;20052;-66
2023/05/06 00:25:31;;;;;;;7.22;3.00;;;;;;;;;;5069918;28;20048;-67
2023/05/06 00:27:58;;;;;;;3.78;2.70;;;;;;;;;;5071220;28;20086;-67
2023/05/06 00:30:26;;;;;;;4.63;3.00;;;;;;;;;;5070879;28;20052;-67
2023/05/06 00:32:54;;;;;;;4.53;2.67;;;;;;;;;;5065917;28;20053;-67
2023/05/06 00:35:22;;;;;;;4.13;2.88;;;;;;;;;;5071624;28;20052;-67
2023/05/06 00:37:51;;;;;;;4.10;2.55;;;;;;;;;;5070578;28;20530;-67
2023/05/06 00:40:18;;;;;;;4.60;2.97;;;;;;;;;;5067670;28;20506;-67
2023/05/06 00:42:46;;;;;;;3.85;2.80;;;;;;;;;;5069101;28;20056;-67
2023/05/06 00:45:13;;;;;;;4.65;2.95;;;;;;;;;;5070945;28;20492;-66
2023/05/06 00:47:42;;;;;;;5.38;3.03;;;;;;;;;;5062809;28;20059;-67
2023/05/06 00:50:09;;;;;;;4.22;2.72;;;;;;;;;;5071257;28;20048;-67
2023/05/06 00:52:37;;;;;;;7.22;2.90;;;;;;;;;;5069351;28;20048;-67
2023/05/06 00:55:04;;;;;;;4.22;2.97;;;;;;;;;;5070060;28;20040;-67
2023/05/06 00:57:31;;;;;;;4.70;3.00;;;;;;;;;;5072511;28;20056;-67
2023/05/06 00:59:58;;;;;;;4.88;3.15;;;;;;;;;;5070196;28;20063;-67
2023/05/06 01:02:26;;;;;;;5.63;3.58;;;;;;;;;;5068074;28;20048;-67
2023/05/06 01:04:54;;;;;;;8.10;3.83;;;;;;;;;;5056057;28;20420;-67
2023/05/06 01:07:28;;;;;;;6.30;3.25;;;;;;;;;;5068451;28;20139;-67
2023/05/06 01:09:58;;;;;;;5.40;3.42;;;;;;;;;;5065164;28;20056;-67
2023/05/06 01:12:29;;;;;;;5.75;3.47;;;;;;;;;;5061066;28;20044;-67
2023/05/06 01:15:00;;;;;;;6.00;3.80;;;;;;;;;;5062376;28;20124;-67
2023/05/06 01:17:28;;;;;;;5.43;3.40;;;;;;;;;;5068404;28;20110;-67
2023/05/06 01:20:00;;;;;;;5.70;3.92;;;;;;;;;;5068154;28;20060;-67
2023/05/06 01:22:28;;;;;;;5.97;3.88;;;;;;;;;;5057167;28;20150;-67
2023/05/06 01:24:56;;;;;;;6.65;3.65;;;;;;;;;;5067182;28;20534;-67
2023/05/06 01:27:24;;;;;;;5.80;3.45;;;;;;;;;;5069816;28;20044;-67
2023/05/06 01:29:51;;;;;;;5.38;3.75;;;;;;;;;;5073254;28;20052;-67
2023/05/06 01:32:28;;;;;;;5.03;3.40;;;;;;;;;;5064734;28;20377;-67
2023/05/06 01:34:57;;;;;;;5.97;4.00;;;;;;;;;;5067928;28;20428;-67
2023/05/06 01:37:30;;;;;;;5.68;3.90;;;;;;;;;;5065699;28;20040;-67
2023/05/06 01:39:57;;;;;;;;;;;;;;;;;;5066847;28;20055;-67
2023/05/06 01:42:26;;;;;;;6.18;3.47;;;;;;;;;;5070195;28;20407;-67
2023/05/06 01:44:55;;;;;;;6.07;3.20;;;;;;;;;;5062912;28;20052;-67
2023/05/06 01:47:23;;;;;;;5.63;3.47;;;;;;;;;;5067181;28;20048;-67
2023/05/06 01:49:50;;;;;;;5.65;3.42;;;;;;;;;;5070190;28;20052;-66
2023/05/06 01:52:17;;;;;;;5.60;3.40;;;;;;;;;;5067825;28;20083;-69
2023/05/06 01:54:45;;;;;;;5.70;3.40;;;;;;;;;;5062478;28;20359;-66
2023/05/06 01:57:12;;;;;;;5.55;3.38;;;;;;;;;;5066062;28;20044;-67
2023/05/06 01:59:41;;;;;;;5.85;3.35;;;;;;;;;;5068033;28;20036;-67
2023/05/06 02:02:08;;;;;;;5.50;3.50;;;;;;;;;;5062764;28;20048;-67
2023/05/06 02:04:35;;;;;;;6.05;3.78;;;;;;;;;;5060893;28;20617;-67
2023/05/06 02:07:02;;;;;;;5.80;3.70;;;;;;;;;;5067088;28;20068;-67
2023/05/06 02:09:29;;;;;;;5.03;3.38;;;;;;;;;;5070380;28;20380;-67
2023/05/06 02:11:57;;;;;;;6.55;3.08;;;;;;;;;;5062022;28;20342;-67
2023/05/06 02:14:24;;;;;;;6.43;3.63;;;;;;;;;;5067168;28;20045;-67
2023/05/06 02:16:54;;;;;;;4.78;3.40;;;;;;;;;;5067294;28;20064;-67
2023/05/06 02:19:21;;;;;;;7.32;3.75;;;;;;;;;;5072429;28;20430;-67
2023/05/06 02:21:48;;;;;;;5.32;3.28;;;;;;;;;;5074418;28;20052;-67
2023/05/06 02:24:15;;;;;;;4.93;2.95;;;;;;;;;;5066264;28;20049;-67
2023/05/06 02:26:43;;;;;;;5.13;3.47;;;;;;;;;;5067821;28;20044;-67
2023/05/06 02:29:10;;;;;;;4.50;2.92;;;;;;;;;;5067873;28;20051;-66
2023/05/06 02:31:37;;;;;;;5.43;3.67;;;;;;;;;;5070140;28;20415;-66
2023/05/06 02:34:06;;;;;;;6.00;3.40;;;;;;;;;;5060102;28;20372;-67
2023/05/06 02:36:33;;;;;;;4.38;3.30;;;;;;;;;;5064398;28;20056;-66
2023/05/06 02:39:00;;;;;;;4.65;3.25;;;;;;;;;;5060964;28;20515;-67
2023/05/06 02:41:27;;;;;;;5.20;3.20;;;;;;;;;;5066602;28;20041;-67
2023/05/06 02:43:54;;;;;;;5.78;4.10;;;;;;;;;;5066014;28;20437;-67
2023/05/06 02:46:22;;;;;;;7.40;4.35;;;;;;;;;;5059262;28;20045;-67
2023/05/06 02:48:49;;;;;;;5.45;3.47;;;;;;;;;;5061670;28;21328;-67
2023/05/06 02:51:18;;;;;;;6.43;3.83;;;;;;;;;;5065924;28;20058;-67
2023/05/06 02:53:45;;;;;;;5.82;3.30;;;;;;;;;;5067052;28;20044;-67
2023/05/06 02:56:12;;;;;;;6.07;3.75;;;;;;;;;;5065220;28;20041;-67
2023/05/06 02:58:39;;;;;;;6.88;4.18;;;;;;;;;;5067392;28;20045;-67
2023/05/06 03:01:06;;;;;;;5.75;3.75;;;;;;;;;;5070027;28;20040;-67
2023/05/06 03:03:34;;;;;;;7.72;4.28;;;;;;;;;;5065253;28;20044;-67
2023/05/06 03:06:01;;;;;;;5.95;4.00;;;;;;;;;;5065825;28;20117;-67
2023/05/06 03:08:29;;;;;;;5.90;3.50;;;;;;;;;;5060602;28;20060;-67
2023/05/06 03:10:57;;;;;;;5.55;3.83;;;;;;;;;;5068447;28;20052;-67
2023/05/06 03:13:24;;;;;;;5.38;3.70;;;;;;;;;;5065537;28;20049;-67
2023/05/06 03:15:52;;;;;;;5.15;3.58;;;;;;;;;;5068039;28;20154;-67
2023/05/06 03:18:20;;;;;;;6.25;3.95;;;;;;;;;;5063877;28;20135;-67
2023/05/06 03:20:48;;;;;;;5.70;3.70;;;;;;;;;;5064883;28;20052;-67
2023/05/06 03:23:16;;;;;;;5.72;3.53;;;;;;;;;;5063576;28;20447;-67
2023/05/06 03:25:45;;;;;;;7.45;3.60;;;;;;;;;;5064978;28;20049;-67
2023/05/06 03:28:12;;;;;;;6.00;3.97;;;;;;;;;;5067617;28;20524;-67
2023/05/06 03:30:39;;;;;;;4.85;3.55;;;;;;;;;;5063990;28;20044;-67
2023/05/06 03:33:06;;;;;;;6.43;3.63;;;;;;;;;;5067539;28;20044;-67
2023/05/06 03:35:34;;;;;;;6.28;3.90;;;;;;;;;;5067097;28;20484;-67
2023/05/06 03:38:01;;;;;;;5.93;3.35;;;;;;;;;;5067158;28;20052;-67
2023/05/06 03:40:28;;;;;;;4.80;3.15;;;;;;;;;;5064234;28;20052;-67
2023/05/06 03:42:57;;;;;;;5.50;3.67;;;;;;;;;;5065889;28;20051;-67
2023/05/06 03:45:24;;;;;;;6.68;3.78;;;;;;;;;;5067592;28;20094;-67
2023/05/06 03:47:51;;;;;;;6.70;4.05;;;;;;;;;;5071850;28;20144;-67
2023/05/06 03:50:18;;;;;;;6.55;4.63;;;;;;;;;;5066140;28;20051;-67
2023/05/06 03:52:46;;;;;;;7.15;4.13;;;;;;;;;;5072464;28;20052;-67
2023/05/06 03:55:13;;;;;;;6.75;3.90;;;;;;;;;;5065505;28;20051;-68
2023/05/06 03:57:40;;;;;;;7.50;4.05;;;;;;;;;;5071564;28;20415;-70
2023/05/06 04:00:10;;;;;;;8.13;4.18;;;;;;;;;;5071171;28;20431;-70
2023/05/06 04:02:38;;;;;;;8.10;4.55;;;;;;;;;;5069749;28;20115;-70
2023/05/06 04:05:06;;;;;;;7.68;4.78;;;;;;;;;;5063414;28;20044;-70
2023/05/06 04:07:33;;;;;;;12.65;5.57;;;;;;;;;;5071004;28;20589;-70
2023/05/06 04:10:00;;;;;;;7.93;4.70;;;;;;;;;;5076093;28;20139;-70
2023/05/06 04:12:28;;;;;;;7.95;5.45;;;;;;;;;;5067150;28;20051;-70
2023/05/06 04:14:55;;;;;;;10.43;5.05;;;;;;;;;;5071433;28;20044;-70
2023/05/06 04:17:23;;;;;;;8.38;5.18;;;;;;;;;;5069382;28;20389;-70
2023/05/06 04:19:52;;;;;;;8.38;4.82;;;;;;;;;;5069317;28;20415;-70
2023/05/06 04:22:20;;;;;;;9.40;4.50;;;;;;;;;;5062864;28;20048;-70
2023/05/06 04:24:47;;;;;;;8.95;4.43;;;;;;;;;;5072404;28;20130;-70
2023/05/06 04:27:14;;;;;;;7.15;4.43;;;;;;;;;;5069545;28;20052;-70
2023/05/06 04:29:41;;;;;;;6.25;4.25;;;;;;;;;;5068849;28;20055;-70
2023/05/06 04:32:10;;;;;;;11.10;4.50;;;;;;;;;;5068334;28;20075;-70
2023/05/06 04:34:39;;;;;;;9.32;4.95;;;;;;;;;;5069625;28;20176;-70
2023/05/06 04:37:06;;;;;;;8.07;4.63;;;;;;;;;;5068283;28;20063;-70
2023/05/06 04:39:35;;;;;;;8.48;4.68;;;;;;;;;;5064614;28;20571;-70
2023/05/06 04:42:03;;;;;;;11.65;5.32;;;;;;;;;;5081820;28;20366;-70
2023/05/06 04:44:32;;;;;;;11.15;5.78;;;;;;;;;;5069945;28;20048;-70
2023/05/06 04:47:00;;;;;;;13.50;6.22;;;;;;;;;;5067377;28;20098;-70
2023/05/06 04:49:27;;;;;;;10.82;5.72;;;;;;;;;;5075640;28;20405;-71
2023/05/06 04:51:55;;;;;;;9.85;5.95;;;;;;;;;;5068835;28;20045;-71
2023/05/06 04:54:23;;;;;;;9.38;5.60;;;;;;;;;;5069436;28;20048;-70
2023/05/06 04:56:50;;;;;;;12.10;6.22;;;;;;;;;;5062123;28;20518;-70
2023/05/06 04:59:17;;;;;;;11.00;5.72;;;;;;;;;;5069303;28;20052;-70
2023/05/06 05:01:44;;;;;;;12.82;6.38;;;;;;;;;;5070028;28;20067;-70
2023/05/06 05:04:12;;;;;;;10.63;5.97;;;;;;;;;;5064936;28;20507;-70
2023/05/06 05:06:39;;;;;;;11.88;6.07;;;;;;;;;;5061673;28;20045;-70
2023/05/06 05:09:09;;;;;;;10.80;6.53;;;;;;;;;;5075032;28;20781;-69
2023/05/06 05:11:37;;;;;;;12.85;6.28;;;;;;;;;;5060533;28;20052;-69
2023/05/06 05:14:05;;;;;;;11.45;6.60;;;;;;;;;;5066796;28;20123;-69
2023/05/06 05:16:32;;;;;;;11.65;6.60;;;;;;;;;;5070858;28;20051;-68
2023/05/06 05:18:59;;;;;;;12.75;6.75;;;;;;;;;;5062268;28;20551;-68
2023/05/06 05:21:27;;;;;;;13.55;7.45;;;;;;;;;;5066592;28;20075;-68
2023/05/06 05:23:54;;;;;;;18.38;8.20;;;;;;;;;;5069287;28;20454;-67
2023/05/06 05:26:23;;;;;;;17.30;8.60;;;;;;;;;;5064998;28;20524;-67
2023/05/06 05:28:50;;;;;;;14.30;7.53;;;;;;;;;;5066451;28;20048;-67
2023/05/06 05:31:17;;;;;;;16.63;7.85;;;;;;;;;;5065676;28;20064;-67
2023/05/06 05:33:45;;;;;;;15.95;7.80;;;;;;;;;;5065978;28;20056;-67
2023/05/06 05:36:14;;;;;;;17.85;8.43;;;;;;;;;;5063833;28;20458;-67
2023/05/06 05:38:41;;;;;;;15.80;7.95;;;;;;;;;;5067420;28;20054;-67
2023/05/06 05:41:11;;;;;;;14.38;7.30;;;;;;;;;;5062595;28;20473;-67
2023/05/06 05:43:39;;;;;;;16.15;7.30;;;;;;;;;;5065446;28;20103;-67
2023/05/06 05:46:06;;;;;;;14.85;6.90;;;;;;;;;;5068090;28;20388;-67
2023/05/06 05:48:34;;;;;;;12.98;6.35;;;;;;;;;;5063305;28;20048;-67
2023/05/06 05:51:02;;;;;;;11.05;6.00;;;;;;;;;;5066927;28;20071;-67
2023/05/06 05:53:29;;;;;;;10.52;5.63;;;;;;;;;;5061677;28;20052;-68
2023/05/06 05:55:57;;;;;;;11.93;5.38;;;;;;;;;;5071665;28;20071;-68
2023/05/06 05:58:24;;;;;;;9.38;4.90;;;;;;;;;;5065306;28;20048;-68
2023/05/06 06:00:53;;;;;;;11.73;5.43;;;;;;;;;;5070104;28;20052;-68
2023/05/06 06:03:20;;;;;;;10.52;5.38;;;;;;;;;;5073158;28;20040;-67
2023/05/06 06:05:48;;;;;;;8.63;5.35;;;;;;;;;;5059310;28;20056;-67
2023/05/06 06:08:18;;;;;;;9.75;5.25;;;;;;;;;;5069901;28;20052;-67
2023/05/06 06:10:46;;;;;;;9.65;5.32;;;;;;;;;;5068767;28;20040;-67
2023/05/06 06:13:13;;;;;;;8.95;5.00;;;;;;;;;;5061596;28;20071;-67
2023/05/06 06:15:40;;;;;;;12.35;5.32;;;;;;;;;;5070398;28;20047;-67
2023/05/06 06:18:09;;;;;;;14.80;6.32;;;;;;;;;;5069908;28;20048;-67
2023/05/06 06:20:37;;;;;;;12.48;5.45;;;;;;;;;;5068718;28;20057;-67
2023/05/06 06:23:04;;;;;;;10.75;5.68;;;;;;;;;;5062006;28;20052;-67
2023/05/06 06:25:32;;;;;;;11.38;5.40;;;;;;;;;;5064131;28;20412;-67
2023/05/06 06:27:59;;;;;;;11.73;5.75;;;;;;;;;;5064659;28;20076;-67
2023/05/06 06:30:26;;;;;;;13.65;6.32;;;;;;;;;;5067371;28;20044;-66
2023/05/06 06:32:55;;;;;;;12.55;6.32;;;;;;;;;;5069155;28;20059;-67
2023/05/06 06:35:23;;;;;;;12.70;6.07;;;;;;;;;;5068898;28;20045;-67
2023/05/06 06:37:51;;;;;;;13.02;6.35;;;;;;;;;;5069170;28;20099;-67
2023/05/06 06:40:18;;;;;;;13.35;6.13;;;;;;;;;;5061486;28;20056;-67
2023/05/06 06:42:46;;;;;;;11.68;5.80;;;;;;;;;;5060554;28;20053;-67
2023/05/06 06:45:14;;;;;;;15.20;6.75;;;;;;;;;;5064678;28;20048;-67
2023/05/06 06:47:41;;;;;;;13.98;6.32;;;;;;;;;;5068520;28;20044;-67
2023/05/06 06:50:09;;;;;;;14.20;6.22;;;;;;;;;;5065601;28;20052;-67
2023/05/06 06:52:38;;;;;;;13.75;6.63;;;;;;;;;;5065295;28;20400;-67
2023/05/06 06:55:05;;;;;;;9.20;5.07;;;;;;;;;;5068341;28;20052;-67
2023/05/06 06:57:33;;;;;;;11.30;5.07;;;;;;;;;;5062257;28;20410;-67
2023/05/06 07:00:00;;;;;;;8.40;4.63;;;;;;;;;;5069229;28;20048;-67
2023/05/06 07:02:27;;;;;;;6.70;4.22;;;;;;;;;;5062988;28;20056;-67
2023/05/06 07:04:54;;;;;;;8.10;4.70;;;;;;;;;;5062481;28;20048;-67
2023/05/06 07:07:22;;;;;;;9.93;4.60;;;;;;;;;;5067972;28;20053;-67
2023/05/06 07:09:50;;;;;;;7.68;4.60;;;;;;;;;;5075073;28;20056;-67
2023/05/06 07:12:18;;;;;;;8.60;4.65;;;;;;;;;;5064987;28;20446;-67
2023/05/06 07:14:45;;;;;;;8.30;4.60;;;;;;;;;;5064413;28;20361;-68
2023/05/06 07:17:12;;;;;;;8.57;4.70;;;;;;;;;;5067102;28;20056;-67
2023/05/06 07:19:39;;;;;;;8.23;4.68;;;;;;;;;;5065776;28;20044;-67
2023/05/06 07:22:06;;;;;;;7.95;4.55;;;;;;;;;;5062566;28;20053;-67
2023/05/06 07:24:34;;;;;;;5.65;3.58;;;;;;;;;;5068031;28;20403;-67
2023/05/06 07:27:03;;;;;;;6.45;4.00;;;;;;;;;;5072287;28;20045;-67
2023/05/06 07:29:30;;;;;;;5.53;3.50;;;;;;;;;;5072814;28;20098;-67
2023/05/06 07:31:57;;;;;;;4.70;3.47;;;;;;;;;;5072149;28;20059;-67
2023/05/06 07:34:24;;;;;;;8.90;3.75;;;;;;;;;;5072965;28;20055;-67
2023/05/06 07:36:52;;;;;;;6.35;3.40;;;;;;;;;;5070032;28;20041;-66
2023/05/06 07:39:19;;;;;;;4.85;3.05;;;;;;;;;;5077063;28;20055;-67
2023/05/06 07:41:46;;;;;;;6.03;3.40;;;;;;;;;;5070594;28;20061;-67
2023/05/06 07:44:15;;;;;;;6.00;3.90;;;;;;;;;;5072317;28;20437;-67
2023/05/06 07:46:42;;;;;;;5.97;3.17;;;;;;;;;;5076573;28;20407;-67
2023/05/06 07:49:09;;;;;;;7.68;3.40;;;;;;;;;;5080562;28;20049;-67
2023/05/06 07:51:36;;;;;;;5.78;3.35;;;;;;;;;;5070363;28;20454;-67
2023/05/06 07:54:04;;;;;;;10.38;3.80;;;;;;;;;;5067707;28;20496;-66
2023/05/06 07:56:31;;;;;;;5.00;3.28;;;;;;;;;;5070459;28;20076;-67
2023/05/06 07:58:59;;;;;;;4.95;2.90;;;;;;;;;;5069658;28;20052;-67
2023/05/06 08:01:28;;;;;;;9.05;3.67;;;;;;;;;;5067959;28;20123;-67
2023/05/06 08:03:56;;;;;;;5.05;3.50;;;;;;;;;;5066616;28;20056;-67
2023/05/06 08:06:23;;;;;;;6.60;3.63;;;;;;;;;;5064264;28;20515;-67
2023/05/06 08:08:50;;;;;;;6.18;3.47;;;;;;;;;;5071546;28;20440;-67
2023/05/06 08:11:18;;;;;;;6.18;3.40;;;;;;;;;;5066951;28;20132;-67
2023/05/06 08:13:45;;;;;;;4.82;2.88;;;;;;;;;;5067744;28;20063;-67
2023/05/06 08:16:13;;;;;;;5.93;3.33;;;;;;;;;;5068139;28;20156;-67
2023/05/06 08:18:41;;;;;;;5.28;3.42;;;;;;;;;;5069425;28;20109;-67
2023/05/06 08:21:09;;;;;;;6.43;3.58;;;;;;;;;;5066194;28;20056;-67
2023/05/06 08:23:36;;;;;;;4.68;3.20;;;;;;;;;;5069236;28;20123;-67
2023/05/06 08:26:03;;;;;;;5.97;2.83;;;;;;;;;;5069538;28;20087;-67
2023/05/06 08:28:31;;;;;;;5.07;2.95;;;;;;;;;;5072038;28;20050;-67
2023/05/06 08:30:58;;;;;;;5.50;3.03;;;;;;;;;;5068229;28;20090;-67
2023/05/06 08:33:26;;;;;;;4.72;3.10;;;;;;;;;;5072010;28;20070;-67
2023/05/06 08:35:56;;;;;;;5.70;3.10;;;;;;;;;;5071047;28;20051;-67
2023/05/06 08:38:24;;;;;;;5.32;3.30;;;;;;;;;;5069494;28;20114;-67
2023/05/06 08:40:53;;;;;;;5.82;3.33;;;;;;;;;;5093891;28;20059;-67
2023/05/06 08:43:20;;;;;;;4.82;3.00;;;;;;;;;;5074556;28;20409;-67
2023/05/06 08:45:48;;;;;;;4.88;3.05;;;;;;;;;;5075151;28;20044;-67
2023/05/06 08:48:15;;;;;;;7.53;3.50;;;;;;;;;;5069401;28;20458;-67
2023/05/06 08:50:43;;;;;;;5.10;3.30;;;;;;;;;;5067854;28;20052;-67
2023/05/06 08:53:13;;;;;;;5.32;3.08;;;;;;;;;;5071204;28;20056;-67
2023/05/06 08:55:41;;;;;;;5.15;3.45;;;;;;;;;;5066922;28;20437;-67
2023/05/06 08:58:09;;;;;;;5.05;3.30;;;;;;;;;;5070454;28;20388;-67
2023/05/06 09:00:36;;;;;;;5.68;3.08;;;;;;;;;;5069207;28;20063;-66
2023/05/06 09:03:04;;;;;;;5.60;3.20;;;;;;;;;;5069265;28;20044;-67
2023/05/06 09:05:31;;;;;;;6.00;3.80;;;;;;;;;;5070975;28;20048;-66
2023/05/06 09:07:58;;;;;;;5.53;3.28;;;;;;;;;;5070169;28;20052;-67
2023/05/06 09:10:31;;;;;;;5.38;3.70;;;;;;;;;;5070515;28;20048;-67
2023/05/06 09:12:58;;;;;;;6.88;3.60;;;;;;;;;;5068777;28;20419;-66
2023/05/06 09:15:26;;;;;;;5.22;3.50;;;;;;;;;;5065718;28;20049;-67
2023/05/06 09:17:55;;;;;;;5.10;3.65;;;;;;;;;;5066210;28;20064;-66
2023/05/06 09:20:22;;;;;;;4.80;3.25;;;;;;;;;;5063026;28;20506;-67
2023/05/06 09:22:49;;;;;;;5.50;3.88;;;;;;;;;;5062692;28;20070;-67
2023/05/06 09:25:16;;;;;;;6.68;3.70;;;;;;;;;;5071663;28;20464;-67
2023/05/06 09:27:45;;;;;;;4.68;3.45;;;;;;;;;;5066571;28;20072;-66
2023/05/06 09:30:13;;;;;;;6.13;3.47;;;;;;;;;;5064582;28;20037;-67
2023/05/06 09:32:40;;;;;;;6.35;3.88;;;;;;;;;;5066124;28;20135;-67
2023/05/06 09:35:08;;;;;;;6.82;4.55;;;;;;;;;;5070471;28;20110;-67
2023/05/06 09:37:36;;;;;;;5.57;4.38;;;;;;;;;;5069815;28;20053;-67
2023/05/06 09:40:03;;;;;;;6.97;4.47;;;;;;;;;;5069593;28;20061;-67
2023/05/06 09:42:30;;;;;;;6.65;4.22;;;;;;;;;;5060836;28;20480;-67
2023/05/06 09:45:00;;;;;;;6.95;4.88;;;;;;;;;;5066916;28;20048;-67
2023/05/06 09:47:28;;;;;;;8.43;5.43;;;;;;;;;;5063225;28;20053;-67
2023/05/06 09:49:59;;;;;;;7.78;5.03;;;;;;;;;;5060596;28;20098;-67
2023/05/06 09:52:27;;;;;;;8.23;5.40;;;;;;;;;;5059743;28;20048;-67
2023/05/06 09:54:54;;;;;;;8.48;5.57;;;;;;;;;;5064740;28;20123;-67
2023/05/06 09:57:22;;;;;;;8.13;5.35;;;;;;;;;;5067515;28;20055;-67
2023/05/06 09:59:50;;;;;;;8.23;5.25;;;;;;;;;;5063680;28;20513;-67
2023/05/06 10:02:19;;;;;;;8.25;5.72;;;;;;;;;;5074407;28;20094;-67
2023/05/06 10:04:49;;;;;;;8.07;5.63;;;;;;;;;;5065781;28;20562;-67
2023/05/06 10:07:18;;;;;;;6.97;4.82;;;;;;;;;;5068636;28;20036;-67
2023/05/06 10:09:46;;;;;;;8.93;5.18;;;;;;;;;;5066044;28;20484;-67
2023/05/06 10:12:14;;;;;;;8.93;5.97;;;;;;;;;;5061061;28;21057;-67
2023/05/06 10:14:41;;;;;;;7.72;5.63;;;;;;;;;;5061990;28;20442;-67
2023/05/06 10:17:09;;;;;;;11.95;6.97;;;;;;;;;;5069040;28;20403;-67
2023/05/06 10:19:40;;;;;;;9.15;6.30;;;;;;;;;;5066075;28;20056;-67
2023/05/06 10:22:11;;;;;;;12.32;7.18;;;;;;;;;;5070317;28;20122;-67
2023/05/06 10:24:42;;;;;;;11.43;6.97;;;;;;;;;;5068616;28;20059;-67
2023/05/06 10:27:11;;;;;;;9.55;6.60;;;;;;;;;;5069292;28;20396;-67
2023/05/06 10:29:38;;;;;;;10.32;6.57;;;;;;;;;;5068987;28;20044;-67
2023/05/06 10:32:08;;;;;;;9.75;6.55;;;;;;;;;;5064689;28;20059;-67
2023/05/06 10:34:41;;;;;;;9.88;6.53;;;;;;;;;;5081836;28;20040;-67
2023/05/06 10:37:11;;;;;;;10.10;6.55;;;;;;;;;;5067228;28;20396;-67
2023/05/06 10:39:40;;;;;;;9.60;5.93;;;;;;;;;;5065772;28;20408;-67
2023/05/06 10:42:10;;;;;;;10.77;6.70;;;;;;;;;;5068562;28;20125;-67
2023/05/06 10:44:56;;;;;;;10.82;6.68;;;;;;;;;;5069496;28;20040;-67
2023/05/06 10:47:23;;;;;;;10.38;6.88;;;;;;;;;;5069661;28;20054;-67
2023/05/06 10:50:05;;;;;;;9.55;5.90;;;;;;;;;;5066500;28;20048;-67
2023/05/06 10:52:45;;;;;;;10.98;6.25;;;;;;;;;;5065907;28;20062;-67
2023/05/06 10:55:25;;;;;;;9.73;6.13;;;;;;;;;;5072317;28;20049;-67
2023/05/06 10:57:54;;;;;;;9.85;6.10;;;;;;;;;;5066068;28;20153;-67
2023/05/06 11:00:22;;;;;;;10.10;5.85;;;;;;;;;;5068275;28;20076;-67
2023/05/06 11:02:51;;;;;;;9.45;5.97;;;;;;;;;;5067483;28;20487;-67
2023/05/06 11:05:18;;;;;;;8.57;6.32;;;;;;;;;;5068266;28;20468;-67
2023/05/06 11:07:50;;;;;;;8.70;6.07;;;;;;;;;;5063919;28;20059;-67
2023/05/06 11:10:31;;;;;;;9.30;5.95;;;;;;;;;;5070076;28;20048;-67
2023/05/06 11:12:59;;;;;;;10.27;6.03;;;;;;;;;;5065324;28;20125;-67
2023/05/06 11:15:27;;;;;;;10.23;6.07;;;;;;;;;;5058056;28;20488;-67
2023/05/06 11:17:55;;;;;;;8.60;6.28;;;;;;;;;;5064423;28;20500;-68
2023/05/06 11:20:23;;;;;;;8.38;6.20;;;;;;;;;;5063252;28;20044;-68
2023/05/06 11:22:51;;;;;;;9.80;6.25;;;;;;;;;;5062867;28;20045;-68
2023/05/06 11:25:39;;;;;;;8.82;6.07;;;;;;;;;;5069469;28;20416;-67
2023/05/06 11:28:07;;;;;;;10.05;6.05;;;;;;;;;;5068182;28;20056;-68
2023/05/06 11:30:35;;;;;;;8.60;6.18;;;;;;;;;;5066711;28;20510;-68
2023/05/06 11:33:04;;;;;;;9.73;5.28;;;;;;;;;;5069024;28;20056;-68
2023/05/06 11:35:35;;;;;;;8.90;4.82;;;;;;;;;;5064365;28;20045;-68
2023/05/06 11:38:04;;;;;;;9.00;5.07;;;;;;;;;;5069417;28;20492;-68
2023/05/06 11:40:32;;;;;;;9.07;5.57;;;;;;;;;;5069306;28;20692;-67
2023/05/06 11:43:10;;;;;;;9.48;5.90;;;;;;;;;;5070988;28;20048;-67
2023/05/06 11:45:41;;;;;;;8.23;5.80;;;;;;;;;;5068089;28;20080;-67
2023/05/06 11:48:08;;;;;;;8.23;5.60;;;;;;;;;;5064163;28;20492;-67
2023/05/06 11:50:35;;;;;;;10.20;5.65;;;;;;;;;;5065298;28;20048;-67
2023/05/06 11:53:04;;;;;;;10.02;5.35;;;;;;;;;;5063710;28;20076;-68
2023/05/06 11:55:31;;;;;;;6.55;4.60;;;;;;;;;;5060781;28;20720;-67
2023/05/06 11:57:58;;;;;;;9.63;5.25;;;;;;;;;;5063840;28;20049;-67
2023/05/06 12:00:26;;;;;;;6.45;4.70;;;;;;;;;;5066281;28;20048;-67
2023/05/06 12:02:55;;;;;;;8.63;4.95;;;;;;;;;;5065976;28;20052;-67
2023/05/06 12:05:23;;;;;;;7.35;5.15;;;;;;;;;;5067694;28;20048;-67
2023/05/06 12:07:50;;;;;;;7.10;5.30;;;;;;;;;;5061476;28;20044;-67
2023/05/06 12:10:19;;;;;;;7.85;5.30;;;;;;;;;;5066521;28;20072;-67
2023/05/06 12:12:47;;;;;;;8.95;5.22;;;;;;;;;;5069224;28;20380;-67
2023/05/06 12:15:14;;;;;;;8.68;5.30;;;;;;;;;;5070815;28;20056;-67
2023/05/06 12:17:41;;;;;;;9.65;5.82;;;;;;;;;;5071609;28;20506;-67
2023/05/06 12:20:11;;;;;;;8.95;5.22;;;;;;;;;;5076843;28;20060;-67
2023/05/06 12:22:39;;;;;;;9.52;5.75;;;;;;;;;;5069121;28;20491;-67
2023/05/06 12:25:16;;;;;;;9.27;5.55;;;;;;;;;;5070528;28;20144;-67
2023/05/06 12:27:44;;;;;;;7.88;5.40;;;;;;;;;;5070409;28;20055;-67
2023/05/06 12:30:12;;;;;;;8.07;5.32;;;;;;;;;;5069466;28;20041;-67
2023/05/06 12:32:55;;;;;;;7.78;4.88;;;;;;;;;;5071461;28;20105;-67
2023/05/06 12:35:25;;;;;;;7.78;4.85;;;;;;;;;;5070725;28;20396;-67
2023/05/06 12:37:52;;;;;;;6.00;4.82;;;;;;;;;;5070475;28;20048;-67
2023/05/06 12:40:20;;;;;;;9.60;5.13;;;;;;;;;;5070935;28;20048;-68
2023/05/06 12:42:55;;;;;;;9.77;5.22;;;;;;;;;;5077606;28;20055;-67
2023/05/06 12:45:22;;;;;;;8.75;4.75;;;;;;;;;;5067518;28;20784;-67
2023/05/06 12:47:53;;;;;;;7.07;4.93;;;;;;;;;;5067539;28;20465;-67
2023/05/06 12:50:31;;;;;;;7.10;5.32;;;;;;;;;;5071036;28;20438;-67
2023/05/06 12:52:58;;;;;;;7.38;4.88;;;;;;;;;;5068750;28;20063;-67
2023/05/06 12:55:26;;;;;;;7.88;4.88;;;;;;;;;;5071452;28;20041;-67
2023/05/06 12:57:55;;;;;;;7.80;5.07;;;;;;;;;;5069536;28;20055;-65
2023/05/06 13:00:22;;;;;;;6.75;5.13;;;;;;;;;;5072056;28;20480;-65
2023/05/06 13:02:49;;;;;;;6.65;4.55;;;;;;;;;;5068800;28;20053;-65
2023/05/06 13:05:16;;;;;;;6.45;4.47;;;;;;;;;;5067751;28;20060;-65
2023/05/06 13:07:44;;;;;;;7.60;4.95;;;;;;;;;;5066267;28;20048;-65
2023/05/06 13:10:11;;;;;;;6.82;5.03;;;;;;;;;;5071518;28;20052;-66
2023/05/06 13:12:38;;;;;;;6.97;4.68;;;;;;;;;;5067051;28;20427;-65
2023/05/06 13:15:08;;;;;;;6.50;4.72;;;;;;;;;;5069130;28;20649;-65
2023/05/06 13:17:35;;;;;;;7.47;4.70;;;;;;;;;;5065139;28;20047;-65
2023/05/06 13:20:03;;;;;;;5.72;4.05;;;;;;;;;;5071214;28;20048;-65
2023/05/06 13:22:31;;;;;;;6.13;3.88;;;;;;;;;;5066803;28;20515;-64
2023/05/06 13:24:58;;;;;;;6.25;4.30;;;;;;;;;;5069245;28;20063;-65
2023/05/06 13:27:25;;;;;;;6.97;4.50;;;;;;;;;;5062523;28;20441;-65
2023/05/06 13:29:52;;;;;;;5.88;4.10;;;;;;;;;;5068690;28;20052;-68
2023/05/06 13:32:21;;;;;;;5.72;3.70;;;;;;;;;;5069698;28;20079;-67
2023/05/06 13:34:48;;;;;;;5.93;4.00;;;;;;;;;;5068959;28;20059;-67
2023/05/06 13:37:16;;;;;;;7.38;4.45;;;;;;;;;;5069329;28;20071;-67
2023/05/06 13:39:43;;;;;;;6.82;3.70;;;;;;;;;;5078178;28;20132;-67
2023/05/06 13:42:11;;;;;;;5.50;3.72;;;;;;;;;;5067047;28;20063;-68
2023/05/06 13:44:38;;;;;;;4.60;3.40;;;;;;;;;;5066847;28;20056;-68
2023/05/06 13:47:06;;;;;;;4.25;3.30;;;;;;;;;;5066944;28;20041;-68
2023/05/06 13:49:34;;;;;;;5.85;3.63;;;;;;;;;;5067063;28;20054;-67
2023/05/06 13:52:02;;;;;;;4.20;3.10;;;;;;;;;;5076267;28;20079;-67
2023/05/06 13:54:29;;;;;;;4.95;3.17;;;;;;;;;;5066502;28;20468;-68
2023/05/06 13:56:57;;;;;;;5.22;3.30;;;;;;;;;;5064387;28;20048;-67
2023/05/06 13:59:24;;;;;;;3.60;2.78;;;;;;;;;;5067897;28;20400;-68
2023/05/06 14:01:52;;;;;;;4.63;3.13;;;;;;;;;;5071833;28;20055;-68
2023/05/06 14:04:20;;;;;;;4.55;3.40;;;;;;;;;;5067817;28;20048;-67
2023/05/06 14:06:48;;;;;;;5.93;3.50;;;;;;;;;;5067691;28;20040;-67
2023/05/06 14:09:16;;;;;;;4.53;2.90;;;;;;;;;;5066641;28;20061;-68
2023/05/06 14:11:44;;;;;;;4.80;2.90;;;;;;;;;;5070784;28;20041;-68
2023/05/06 14:14:11;;;;;;;3.75;2.65;;;;;;;;;;5061813;28;20053;-67
2023/05/06 14:16:38;;;;;;;3.40;2.45;;;;;;;;;;5067534;28;20518;-68
2023/05/06 14:19:05;;;;;;;4.47;2.70;;;;;;;;;;5065349;28;20040;-68
2023/05/06 14:21:33;;;;;;;3.53;2.60;;;;;;;;;;5069233;28;20079;-68
2023/05/06 14:24:02;;;;;;;3.08;2.42;;;;;;;;;;5061762;28;20540;-68
2023/05/06 14:26:29;;;;;;;2.88;2.28;;;;;;;;;;5069632;28;20045;-68
2023/05/06 14:28:56;;;;;;;4.20;2.17;;;;;;;;;;5066123;28;20614;-68
2023/05/06 14:31:24;;;;;;;3.28;2.13;;;;;;;;;;5069139;28;20047;-68
2023/05/06 14:33:51;;;;;;;3.13;2.00;;;;;;;;;;5066567;28;20434;-68
2023/05/06 14:36:19;;;;;;;2.45;2.08;;;;;;;;;;5069247;28;20048;-68
2023/05/06 14:38:46;;;;;;;4.45;2.25;;;;;;;;;;5066364;28;20048;-68
2023/05/06 14:41:15;;;;;;;2.50;2.20;;;;;;;;;;5069727;28;20045;-68
2023/05/06 14:43:42;;;;;;;4.82;2.35;;;;;;;;;;5067808;28;20047;-67
2023/05/06 14:46:10;;;;;;;4.07;2.20;;;;;;;;;;5066675;28;20500;-68